Time;durP1;ratioP1;P1;durP2;ratioP2;P2;SDS_P1;SDS_P2;PMS_P1;PMS_P2;Temp;Humidity;BMP_temperature;BMP_pressure;BME280_temperature;BME280_humidity;BME280_pressure;Samples;Min_cycle;Max_cycle;Signal;HPM_P1;HPM_P2
2022/01/11 08:48:46;;;;;;;11.97;5.47;;;4.20;99.90;;;;;;2898236;23;20258;-77
2022/01/11 08:51:13;;;;;;;11.50;4.70;;;4.20;99.90;;;;;;4969595;28;20219;-83
2022/01/11 08:53:40;;;;;;;25.43;8.57;;;4.20;99.90;;;;;;4964636;28;20975;-84
2022/01/11 08:56:07;;;;;;;6.20;3.70;;;4.20;99.90;;;;;;4947162;29;20228;-83
2022/01/11 08:58:34;;;;;;;10.17;4.27;;;4.10;99.90;;;;;;4948687;29;20208;-80
2022/01/11 09:01:01;;;;;;;14.90;7.13;;;4.10;99.90;;;;;;4955144;28;20742;-80
2022/01/11 09:03:27;;;;;;;9.43;3.90;;;4.20;99.90;;;;;;4958431;28;20299;-78
2022/01/11 09:05:56;;;;;;;8.00;3.30;;;4.20;99.90;;;;;;4958228;28;20325;-80
2022/01/11 09:08:22;;;;;;;7.40;2.90;;;4.30;99.90;;;;;;4958530;28;20212;-82
2022/01/11 09:10:50;;;;;;;7.07;3.80;;;4.40;99.90;;;;;;4958499;28;20243;-81
2022/01/11 09:13:19;;;;;;;7.20;3.97;;;4.50;99.90;;;;;;4958722;28;20723;-79
2022/01/11 09:15:46;;;;;;;15.53;5.77;;;4.70;99.90;;;;;;4957785;28;20717;-79
2022/01/11 09:18:13;;;;;;;6.73;3.10;;;4.80;99.90;;;;;;4957637;28;20584;-79
2022/01/11 09:20:40;;;;;;;9.13;3.23;;;4.90;99.90;;;;;;4957513;28;20227;-80
2022/01/11 09:23:08;;;;;;;7.47;2.90;;;4.70;99.90;;;;;;4957559;28;20226;-80
2022/01/11 09:25:35;;;;;;;6.13;3.37;;;4.70;99.90;;;;;;4957802;28;20270;-81
2022/01/11 09:28:02;;;;;;;8.07;3.30;;;4.50;99.90;;;;;;4957883;28;20204;-82
2022/01/11 09:30:29;;;;;;;5.87;3.27;;;4.50;99.90;;;;;;4957871;28;20208;-80
2022/01/11 09:32:57;;;;;;;8.07;3.20;;;4.50;99.90;;;;;;4960387;28;20212;-82
2022/01/11 09:35:23;;;;;;;8.13;3.47;;;4.70;99.90;;;;;;4960090;28;20243;-81
2022/01/11 09:37:50;;;;;;;6.67;3.20;;;4.90;99.90;;;;;;4959369;28;20678;-80
2022/01/11 09:40:19;;;;;;;8.10;3.43;;;5.00;99.90;;;;;;4959394;28;20215;-82
2022/01/11 09:42:46;;;;;;;7.13;3.33;;;5.20;99.90;;;;;;4961739;28;20517;-80
2022/01/11 09:45:14;;;;;;;6.33;3.20;;;5.20;99.90;;;;;;4974131;28;20214;-80
2022/01/11 09:47:42;;;;;;;6.67;3.20;;;5.10;99.90;;;;;;4957389;28;20208;-80
2022/01/11 09:50:11;;;;;;;7.33;3.13;;;5.30;99.90;;;;;;4956371;28;20223;-81
2022/01/11 09:52:38;;;;;;;7.03;3.70;;;5.50;99.90;;;;;;4956881;28;20292;-84
2022/01/11 09:55:07;;;;;;;9.27;3.10;;;5.50;99.90;;;;;;4956500;28;20663;-81
2022/01/11 09:57:35;;;;;;;6.27;3.30;;;5.60;99.90;;;;;;4956000;28;20204;-83
2022/01/11 10:00:04;;;;;;;10.87;3.23;;;5.60;99.90;;;;;;4957248;28;20219;-84
2022/01/11 10:02:31;;;;;;;8.33;2.87;;;5.50;99.90;;;;;;4956543;28;20240;-81
2022/01/11 10:05:00;;;;;;;7.93;3.60;;;5.60;99.90;;;;;;4956735;28;20254;-81
2022/01/11 10:07:32;;;;;;;6.70;2.90;;;5.80;99.90;;;;;;4956850;28;20212;-81
2022/01/11 10:09:59;;;;;;;8.30;2.90;;;5.90;99.90;;;;;;4956321;28;20297;-80
2022/01/11 10:12:26;;;;;;;5.20;2.60;;;5.80;99.90;;;;;;4955216;28;20564;-78
2022/01/11 10:14:56;;;;;;;6.63;2.90;;;5.80;99.90;;;;;;4960065;28;20207;-78
2022/01/11 10:17:25;;;;;;;8.40;3.23;;;5.80;99.90;;;;;;4960392;28;20245;-85
2022/01/11 10:20:01;;;;;;;9.53;2.73;;;5.70;99.90;;;;;;4951768;28;20231;-80
2022/01/11 10:22:30;;;;;;;6.07;2.67;;;5.70;99.90;;;;;;4955097;28;20706;-77
2022/01/11 10:24:59;;;;;;;4.30;2.07;;;5.80;99.90;;;;;;4955456;28;20295;-79
2022/01/11 10:27:28;;;;;;;5.83;2.30;;;5.80;99.90;;;;;;4955971;28;20208;-79
2022/01/11 10:29:59;;;;;;;7.67;2.67;;;5.80;99.90;;;;;;4955876;28;20572;-79
2022/01/11 10:32:30;;;;;;;5.07;2.47;;;6.00;99.90;;;;;;4953446;29;20211;-78
2022/01/11 10:34:59;;;;;;;6.50;2.47;;;6.00;99.90;;;;;;4956319;28;20211;-79
2022/01/11 10:37:36;;;;;;;8.87;2.73;;;5.80;99.90;;;;;;4953199;28;20203;-80
2022/01/11 10:40:09;;;;;;;7.60;2.90;;;5.80;99.90;;;;;;4953825;28;20307;-77
2022/01/11 10:42:38;;;;;;;5.53;2.43;;;5.70;99.90;;;;;;4951725;29;20319;-80
2022/01/11 10:45:09;;;;;;;5.50;2.67;;;5.70;99.90;;;;;;4954134;28;20208;-82
2022/01/11 10:47:37;;;;;;;6.03;2.13;;;5.60;99.90;;;;;;4954217;28;20218;-77
2022/01/11 10:50:09;;;;;;;4.43;2.30;;;5.70;99.90;;;;;;4955214;28;20303;-86
2022/01/11 10:52:36;;;;;;;6.87;2.70;;;5.70;99.90;;;;;;4954269;29;20204;-81
2022/01/11 10:55:05;;;;;;;7.87;2.57;;;5.70;99.90;;;;;;4954914;28;20220;-77
2022/01/11 10:57:33;;;;;;;5.87;2.30;;;5.90;99.90;;;;;;4954269;28;20737;-74
2022/01/11 11:00:21;;;;;;;5.57;2.90;;;5.90;99.90;;;;;;4955617;28;20212;-77
2022/01/11 11:02:56;;;;;;;7.23;2.97;;;5.80;99.90;;;;;;4954579;28;20298;-73
2022/01/11 11:05:28;;;;;;;4.60;2.63;;;5.80;99.90;;;;;;4955196;28;20230;-76
2022/01/11 11:07:59;;;;;;;7.33;2.47;;;5.90;99.90;;;;;;4954821;28;20200;-79
2022/01/11 11:10:33;;;;;;;6.30;2.60;;;6.00;99.90;;;;;;4955277;28;20559;-74
2022/01/11 11:13:01;;;;;;;4.60;2.43;;;6.20;99.90;;;;;;4948375;28;20329;-76
2022/01/11 11:15:31;;;;;;;5.73;2.80;;;6.20;99.90;;;;;;4935812;29;20231;-76
2022/01/11 11:17:58;;;;;;;6.00;3.27;;;6.30;99.90;;;;;;4935931;29;20703;-75
2022/01/11 11:20:25;;;;;;;9.23;3.23;;;6.40;99.90;;;;;;4950432;29;20200;-75
2022/01/11 11:22:52;;;;;;;6.23;3.53;;;6.40;99.90;;;;;;4953858;28;20227;-75
2022/01/11 11:25:20;;;;;;;6.10;3.20;;;6.40;99.90;;;;;;4954283;28;20732;-77
2022/01/11 11:27:46;;;;;;;6.27;2.57;;;6.40;99.90;;;;;;4951570;28;20208;-77
2022/01/11 11:30:13;;;;;;;7.03;3.07;;;6.30;99.90;;;;;;4951430;28;20234;-75
2022/01/11 11:32:42;;;;;;;10.70;3.17;;;6.30;99.90;;;;;;4954581;28;20212;-75
2022/01/11 11:35:09;;;;;;;6.40;3.00;;;6.30;99.90;;;;;;4954560;28;20208;-74
2022/01/11 11:37:38;;;;;;;8.23;3.00;;;6.40;99.90;;;;;;4955350;28;20263;-83
2022/01/11 11:40:09;;;;;;;10.53;2.83;;;6.20;99.90;;;;;;4953397;28;20250;-76
2022/01/11 11:42:38;;;;;;;6.13;2.60;;;6.30;99.90;;;;;;4934275;29;20237;-78
2022/01/11 11:45:16;;;;;;;6.93;2.80;;;6.30;99.90;;;;;;4935128;29;20216;-79
2022/01/11 11:47:45;;;;;;;8.57;2.90;;;6.20;99.90;;;;;;4951998;29;20212;-87
2022/01/11 11:50:16;;;;;;;5.73;2.70;;;6.30;99.90;;;;;;4954205;28;20219;-79
2022/01/11 11:52:44;;;;;;;7.17;3.27;;;6.40;99.90;;;;;;4954631;28;20218;-84
2022/01/11 11:55:19;;;;;;;7.03;2.40;;;6.50;99.90;;;;;;4954144;28;20359;-76
2022/01/11 11:57:46;;;;;;;12.87;3.17;;;6.50;99.90;;;;;;4953748;28;20238;-80
2022/01/11 12:00:18;;;;;;;4.67;2.20;;;6.40;99.90;;;;;;4954422;28;20219;-80
2022/01/11 12:02:48;;;;;;;6.60;2.57;;;6.50;99.90;;;;;;4953833;28;20240;-75
2022/01/11 12:05:30;;;;;;;11.97;5.10;;;6.50;99.90;;;;;;4954222;28;20208;-78
2022/01/11 12:07:57;;;;;;;5.37;2.90;;;7.10;99.90;;;;;;4954997;28;20226;-81
2022/01/11 12:10:53;;;;;;;7.93;3.20;;;7.10;99.90;;;;;;4954479;28;20586;-81
2022/01/11 12:13:40;;;;;;;9.40;3.20;;;7.10;99.90;;;;;;4945082;28;20200;-78
2022/01/11 12:16:39;;;;;;;5.80;2.50;;;6.90;99.90;;;;;;4934865;29;20232;-80
2022/01/11 12:19:08;;;;;;;5.00;2.40;;;6.80;99.90;;;;;;4935500;29;20217;-78
2022/01/11 12:21:42;;;;;;;7.40;2.23;;;6.70;99.90;;;;;;4951587;29;20231;-77
2022/01/11 12:24:09;;;;;;;7.17;2.77;;;6.70;99.90;;;;;;4952317;28;20294;-78
2022/01/11 12:26:38;;;;;;;8.93;3.33;;;6.90;99.90;;;;;;4954701;28;20231;-76
2022/01/11 12:29:25;;;;;;;5.93;2.47;;;6.90;99.90;;;;;;4951150;28;20212;-80
2022/01/11 12:31:55;;;;;;;9.77;3.23;;;6.90;99.90;;;;;;4939924;29;20218;-75
2022/01/11 12:35:03;;;;;;;8.07;3.07;;;6.80;99.90;;;;;;4954758;28;20234;-77
2022/01/11 12:37:43;;;;;;;6.80;2.90;;;6.90;99.90;;;;;;4934514;28;20682;-81
2022/01/11 12:40:13;;;;;;;16.10;3.40;;;6.80;99.90;;;;;;4958705;28;20215;-74
2022/01/11 12:42:54;;;;;;;6.63;2.77;;;6.90;99.90;;;;;;4958362;28;20729;-80
2022/01/11 12:45:54;;;;;;;6.27;2.93;;;7.00;99.90;;;;;;4957399;28;20232;-77
2022/01/11 12:48:57;;;;;;;6.80;2.57;;;7.00;99.90;;;;;;4939207;29;20213;-83
2022/01/11 12:51:39;;;;;;;6.27;2.17;;;7.10;99.90;;;;;;4939016;29;20303;-80
2022/01/11 12:54:31;;;;;;;4.17;2.20;;;7.10;99.90;;;;;;4939010;29;20303;-79
2022/01/11 12:57:00;;;;;;;6.17;2.53;;;7.10;99.90;;;;;;4954083;28;20702;-79
2022/01/11 12:59:32;;;;;;;8.97;2.47;;;7.10;99.90;;;;;;4957826;28;20218;-74
2022/01/11 13:02:09;;;;;;;5.90;2.73;;;7.10;99.90;;;;;;4957340;28;20236;-81
2022/01/11 13:04:41;;;;;;;4.87;2.53;;;7.10;99.90;;;;;;4956666;28;20263;-75
2022/01/11 13:07:27;;;;;;;7.90;2.50;;;6.90;99.90;;;;;;4957453;28;20235;-78
2022/01/11 13:10:11;;;;;;;5.30;2.17;;;6.80;99.90;;;;;;4955658;28;20686;-79
2022/01/11 13:12:39;;;;;;;5.57;3.03;;;6.80;99.90;;;;;;4957012;28;20214;-80
2022/01/11 13:15:12;;;;;;;5.80;2.27;;;6.70;99.90;;;;;;4938583;28;20213;-81
2022/01/11 13:18:05;;;;;;;4.50;2.10;;;6.70;99.90;;;;;;4948936;29;20204;-83
2022/01/11 13:20:32;;;;;;;5.00;1.87;;;6.70;99.90;;;;;;4938189;29;20310;-80
2022/01/11 13:23:09;;;;;;;5.63;2.40;;;6.80;99.90;;;;;;4951565;29;20232;-81
2022/01/11 13:25:38;;;;;;;3.40;2.27;;;6.80;99.90;;;;;;4954658;28;20233;-85
2022/01/11 13:28:05;;;;;;;5.77;2.60;;;7.00;99.90;;;;;;4958183;28;20537;-77
2022/01/11 13:30:39;;;;;;;6.53;2.63;;;6.90;99.90;;;;;;4953893;28;20208;-83
2022/01/11 13:33:06;;;;;;;4.80;2.30;;;6.90;99.90;;;;;;4957178;28;20223;-79
2022/01/11 13:35:34;;;;;;;7.87;2.63;;;6.80;99.90;;;;;;4957885;28;20227;-78
2022/01/11 13:38:11;;;;;;;5.67;2.73;;;6.70;99.90;;;;;;4957313;28;20216;-83
2022/01/11 13:40:41;;;;;;;6.20;2.60;;;6.70;99.90;;;;;;4957941;28;20210;-84
2022/01/11 13:43:10;;;;;;;6.17;2.63;;;6.70;99.90;;;;;;4957350;28;20266;-83
2022/01/11 13:45:40;;;;;;;5.73;2.33;;;6.70;99.90;;;;;;4954684;28;20217;-84
2022/01/11 13:48:11;;;;;;;7.20;2.57;;;6.70;99.90;;;;;;4944103;28;20204;-81
2022/01/11 13:50:50;;;;;;;8.90;2.37;;;6.70;99.90;;;;;;4955558;29;20211;-85
2022/01/11 13:53:31;;;;;;;4.00;2.17;;;6.70;99.90;;;;;;4953320;28;20201;-83
2022/01/11 13:56:07;;;;;;;4.17;2.20;;;6.70;99.90;;;;;;4955903;29;20227;-82
2022/01/11 13:58:38;;;;;;;7.67;2.77;;;6.70;99.90;;;;;;4956564;28;20558;-83
2022/01/11 14:01:07;;;;;;;11.47;3.00;;;6.60;99.90;;;;;;4955449;28;20283;-82
2022/01/11 14:03:34;;;;;;;5.90;2.50;;;6.60;99.90;;;;;;4956019;28;20246;-80
2022/01/11 14:06:11;;;;;;;9.33;2.63;;;6.60;99.90;;;;;;4955882;28;20243;-82
2022/01/11 14:08:44;;;;;;;5.57;2.57;;;6.50;99.90;;;;;;4956934;28;20896;-84
2022/01/11 14:11:12;;;;;;;5.37;2.27;;;6.50;99.90;;;;;;4956388;28;20208;-84
2022/01/11 14:13:42;;;;;;;4.73;2.40;;;6.60;99.90;;;;;;4956786;28;20211;-82
2022/01/11 14:16:15;;;;;;;4.47;2.37;;;6.60;99.90;;;;;;4956834;28;20274;-82
2022/01/11 14:18:42;;;;;;;6.10;2.20;;;6.70;99.90;;;;;;4957167;28;20208;-75
2022/01/11 14:21:11;;;;;;;5.23;2.17;;;6.50;99.90;;;;;;4964010;28;20214;-77
2022/01/11 14:23:38;;;;;;;4.63;2.17;;;6.60;99.90;;;;;;4976249;28;20295;-76
2022/01/11 14:26:08;;;;;;;8.47;2.67;;;6.60;99.90;;;;;;4973948;28;20231;-73
2022/01/11 14:28:38;;;;;;;6.47;2.30;;;6.60;99.90;;;;;;4957679;29;20219;-73
2022/01/11 14:31:15;;;;;;;9.37;2.43;;;6.60;99.90;;;;;;4963787;28;20267;-76
2022/01/11 14:33:43;;;;;;;4.90;2.03;;;6.70;99.90;;;;;;4956030;28;20242;-77
2022/01/11 14:36:16;;;;;;;4.47;2.10;;;6.70;99.90;;;;;;4946684;28;20311;-75
2022/01/11 14:38:44;;;;;;;8.97;2.13;;;6.50;99.90;;;;;;4939119;29;20268;-80
2022/01/11 14:41:15;;;;;;;8.93;2.97;;;6.40;99.90;;;;;;4940056;29;20209;-76
2022/01/11 14:43:55;;;;;;;9.83;1.90;;;6.50;99.90;;;;;;4936841;29;20241;-76
2022/01/11 14:46:24;;;;;;;4.37;1.60;;;6.50;99.90;;;;;;4937582;29;20710;-77
2022/01/11 14:48:51;;;;;;;5.40;2.37;;;6.50;99.90;;;;;;4937101;29;20224;-78
2022/01/11 14:51:21;;;;;;;3.60;1.80;;;6.40;99.90;;;;;;4944569;29;20300;-76
2022/01/11 14:53:50;;;;;;;5.90;2.07;;;6.40;99.90;;;;;;4955980;28;20212;-76
2022/01/11 14:56:18;;;;;;;6.20;2.30;;;6.40;99.90;;;;;;4955830;28;20234;-77
2022/01/11 14:58:49;;;;;;;4.33;2.03;;;6.50;99.90;;;;;;4955330;28;20205;-79
2022/01/11 15:01:18;;;;;;;5.63;2.00;;;6.50;99.90;;;;;;4955363;28;20659;-81
2022/01/11 15:03:49;;;;;;;6.23;2.30;;;6.40;99.90;;;;;;4955510;28;20232;-79
2022/01/11 15:06:18;;;;;;;4.77;2.27;;;6.40;99.90;;;;;;4955216;28;20239;-77
2022/01/11 15:08:49;;;;;;;4.40;2.13;;;6.40;99.90;;;;;;4944494;28;20205;-74
2022/01/11 15:11:19;;;;;;;4.17;2.03;;;6.40;99.90;;;;;;4935943;29;20231;-77
2022/01/11 15:13:48;;;;;;;4.60;2.40;;;6.30;99.90;;;;;;4935773;29;20210;-79
2022/01/11 15:16:15;;;;;;;3.00;1.77;;;6.10;99.90;;;;;;4936209;29;20240;-79
2022/01/11 15:18:43;;;;;;;2.97;1.70;;;6.20;99.90;;;;;;4935997;29;20739;-79
2022/01/11 15:21:12;;;;;;;6.57;1.83;;;6.10;99.90;;;;;;4936077;29;20208;-79
2022/01/11 15:23:39;;;;;;;6.53;2.20;;;6.10;99.90;;;;;;4935516;29;20810;-78
2022/01/11 15:26:06;;;;;;;4.07;1.80;;;6.10;99.90;;;;;;4946301;28;20229;-79
2022/01/11 15:28:33;;;;;;;4.63;1.80;;;6.20;99.90;;;;;;4954883;28;20215;-78
2022/01/11 15:31:00;;;;;;;3.60;2.17;;;6.10;99.90;;;;;;4955153;28;20212;-78
2022/01/11 15:33:27;;;;;;;5.43;2.40;;;6.20;99.90;;;;;;4953720;29;20216;-79
2022/01/11 15:35:54;;;;;;;5.97;2.00;;;6.20;99.90;;;;;;4954783;28;20711;-79
2022/01/11 15:38:22;;;;;;;5.50;1.87;;;6.20;99.90;;;;;;4955105;28;20204;-79
2022/01/11 15:40:53;;;;;;;7.43;1.97;;;6.20;99.90;;;;;;4951494;28;20228;-79
2022/01/11 15:43:21;;;;;;;6.77;2.60;;;6.10;99.90;;;;;;4935828;29;20332;-78
2022/01/11 15:45:48;;;;;;;7.37;2.53;;;6.00;99.90;;;;;;4935882;29;20271;-76
2022/01/11 15:48:15;;;;;;;6.63;3.03;;;5.90;99.90;;;;;;4935688;29;20205;-78
2022/01/11 15:50:41;;;;;;;6.27;2.17;;;5.90;99.90;;;;;;4939064;29;20212;-77
2022/01/11 15:53:08;;;;;;;7.07;2.40;;;5.90;99.90;;;;;;4935526;29;20685;-77
2022/01/11 15:55:37;;;;;;;5.50;2.60;;;5.80;99.90;;;;;;4935499;29;20225;-78
2022/01/11 15:58:03;;;;;;;10.10;3.03;;;5.80;99.90;;;;;;4935490;29;20212;-79
2022/01/11 16:00:31;;;;;;;6.90;2.60;;;5.70;99.90;;;;;;4934269;29;20217;-80
2022/01/11 16:02:57;;;;;;;6.47;2.40;;;5.60;99.90;;;;;;4949399;29;20232;-80
2022/01/11 16:05:24;;;;;;;6.57;2.83;;;5.60;99.90;;;;;;4954443;28;20721;-77
2022/01/11 16:07:51;;;;;;;5.40;2.00;;;5.60;99.90;;;;;;4954678;28;20685;-77
2022/01/11 16:10:19;;;;;;;6.03;2.40;;;5.50;99.90;;;;;;4954151;28;20204;-78
2022/01/11 16:12:47;;;;;;;6.47;2.70;;;5.40;99.90;;;;;;4954370;28;20693;-78
2022/01/11 16:15:14;;;;;;;17.10;6.40;;;5.20;99.90;;;;;;4954751;28;20204;-77
2022/01/11 16:17:41;;;;;;;13.23;3.10;;;5.10;99.90;;;;;;4954985;28;20203;-76
2022/01/11 16:20:09;;;;;;;9.30;2.97;;;5.10;99.90;;;;;;4950352;28;20307;-76
2022/01/11 16:22:35;;;;;;;9.13;3.60;;;4.90;99.90;;;;;;4954155;28;20208;-77
2022/01/11 16:25:02;;;;;;;7.00;3.03;;;4.90;99.90;;;;;;4968327;28;20199;-77
2022/01/11 16:27:29;;;;;;;8.53;2.77;;;4.90;99.90;;;;;;4956551;28;20208;-81
2022/01/11 16:30:14;;;;;;;7.50;3.10;;;4.80;99.90;;;;;;4954029;28;20713;-77
2022/01/11 16:32:41;;;;;;;8.37;3.07;;;4.80;99.90;;;;;;4953224;28;20208;-77
2022/01/11 16:35:09;;;;;;;6.70;3.37;;;4.70;99.90;;;;;;4947638;28;20212;-77
2022/01/11 16:37:35;;;;;;;4.63;2.30;;;4.60;99.90;;;;;;4934264;29;20212;-78
2022/01/11 16:40:08;;;;;;;7.47;3.47;;;4.60;99.90;;;;;;4935484;29;20223;-78
2022/01/11 16:42:39;;;;;;;8.40;3.40;;;4.60;99.90;;;;;;4935661;29;20247;-74
2022/01/11 16:45:10;;;;;;;11.70;3.03;;;4.50;99.90;;;;;;4934500;29;20219;-78
2022/01/11 16:47:38;;;;;;;6.33;2.57;;;4.40;99.90;;;;;;4934328;29;20205;-77
2022/01/11 16:50:06;;;;;;;9.90;2.80;;;4.20;99.90;;;;;;4948618;28;20578;-78
2022/01/11 16:52:34;;;;;;;8.63;2.70;;;4.00;99.90;;;;;;4953470;28;20679;-77
2022/01/11 16:55:04;;;;;;;6.87;3.10;;;4.00;99.90;;;;;;4953378;28;20218;-80
2022/01/11 16:57:31;;;;;;;7.10;3.03;;;4.00;99.90;;;;;;4953746;28;20208;-77
2022/01/11 16:59:58;;;;;;;7.60;2.73;;;3.90;99.90;;;;;;4953867;28;20236;-76
2022/01/11 17:02:27;;;;;;;6.53;2.70;;;4.00;99.90;;;;;;4953121;28;20212;-77
2022/01/11 17:04:53;;;;;;;6.20;2.73;;;4.00;99.90;;;;;;4953305;28;20250;-75
2022/01/11 17:07:20;;;;;;;9.20;2.67;;;3.90;99.90;;;;;;4951479;28;20239;-76
2022/01/11 17:09:47;;;;;;;6.40;2.43;;;3.80;99.90;;;;;;4934463;29;20208;-76
2022/01/11 17:12:14;;;;;;;9.40;2.90;;;3.90;99.90;;;;;;4934508;29;20303;-75
2022/01/11 17:14:41;;;;;;;8.93;2.73;;;3.80;99.90;;;;;;4934805;29;20244;-75
2022/01/11 17:17:08;;;;;;;5.07;2.87;;;3.70;99.90;;;;;;4934512;29;20576;-76
2022/01/11 17:19:36;;;;;;;8.77;3.20;;;3.70;99.90;;;;;;4934855;29;20213;-75
2022/01/11 17:22:03;;;;;;;5.17;2.33;;;3.70;99.90;;;;;;4935864;29;20209;-75
2022/01/11 17:24:30;;;;;;;7.90;3.73;;;3.60;99.90;;;;;;4938174;29;20315;-75
2022/01/11 17:26:57;;;;;;;7.80;3.20;;;3.70;99.90;;;;;;4937636;29;20228;-75
2022/01/11 17:29:24;;;;;;;6.53;3.53;;;3.70;99.90;;;;;;4937996;29;20576;-75
2022/01/11 17:31:50;;;;;;;7.77;3.30;;;3.60;99.90;;;;;;4938209;28;20215;-75
2022/01/11 17:34:18;;;;;;;9.57;3.00;;;3.60;99.90;;;;;;4955956;28;20207;-75
2022/01/11 17:36:46;;;;;;;11.13;4.27;;;3.50;99.90;;;;;;4956466;28;20236;-75
2022/01/11 17:39:14;;;;;;;8.83;3.70;;;3.40;99.90;;;;;;4956527;28;20671;-75
2022/01/11 17:41:41;;;;;;;6.17;3.20;;;3.50;99.90;;;;;;4956604;28;20244;-75
2022/01/11 17:44:08;;;;;;;7.97;3.80;;;3.40;99.90;;;;;;4956737;28;20232;-75
2022/01/11 17:46:35;;;;;;;8.00;3.37;;;3.30;99.90;;;;;;4956221;28;20230;-75
2022/01/11 17:49:02;;;;;;;6.47;3.73;;;3.20;99.90;;;;;;4956573;28;20697;-75
2022/01/11 17:51:29;;;;;;;9.97;3.73;;;3.10;99.90;;;;;;4955977;28;20674;-75
2022/01/11 17:53:58;;;;;;;11.47;3.83;;;3.10;99.90;;;;;;4956130;28;20215;-75
2022/01/11 17:56:25;;;;;;;12.80;4.10;;;3.00;99.90;;;;;;4950391;28;20623;-76
2022/01/11 17:58:53;;;;;;;10.07;4.57;;;2.90;99.90;;;;;;4937069;29;20651;-76
2022/01/11 18:01:22;;;;;;;10.97;4.03;;;2.90;99.90;;;;;;4937412;29;20208;-75
2022/01/11 18:03:49;;;;;;;20.27;4.90;;;2.90;99.90;;;;;;4936988;29;20236;-75
2022/01/11 18:06:16;;;;;;;11.43;4.20;;;2.80;99.90;;;;;;4936920;28;20233;-75
2022/01/11 18:08:43;;;;;;;12.40;4.27;;;2.90;99.90;;;;;;4949905;29;20196;-75
2022/01/11 18:11:11;;;;;;;9.43;3.87;;;2.90;99.90;;;;;;4937473;29;20214;-74
2022/01/11 18:13:38;;;;;;;11.73;4.60;;;2.90;99.90;;;;;;4946653;29;20236;-78
2022/01/11 18:16:06;;;;;;;14.83;5.07;;;2.90;99.90;;;;;;4956307;28;20224;-76
2022/01/11 18:18:33;;;;;;;10.33;4.50;;;2.90;99.90;;;;;;4955899;28;20578;-76
2022/01/11 18:21:00;;;;;;;9.60;4.30;;;2.90;99.90;;;;;;4956183;28;20607;-76
2022/01/11 18:23:27;;;;;;;12.00;5.50;;;2.80;99.90;;;;;;4955993;28;20259;-77
2022/01/11 18:25:55;;;;;;;11.47;5.00;;;2.70;99.90;;;;;;4955052;28;20220;-74
2022/01/11 18:28:23;;;;;;;15.67;5.43;;;2.70;99.90;;;;;;4954591;28;20204;-74
2022/01/11 18:30:51;;;;;;;11.57;5.53;;;2.60;99.90;;;;;;4952497;28;20204;-75
2022/01/11 18:33:18;;;;;;;10.60;4.80;;;2.60;99.90;;;;;;4953640;28;20208;-74
2022/01/11 18:35:47;;;;;;;9.87;4.77;;;2.60;99.90;;;;;;4954200;28;20246;-73
2022/01/11 18:38:14;;;;;;;13.70;6.43;;;2.60;99.90;;;;;;4955968;28;20247;-73
2022/01/11 18:40:41;;;;;;;14.33;5.77;;;2.50;99.90;;;;;;4955858;28;20726;-75
2022/01/11 18:43:08;;;;;;;9.60;5.03;;;2.50;99.90;;;;;;4955846;28;20208;-74
2022/01/11 18:45:37;;;;;;;10.67;5.17;;;2.30;99.90;;;;;;4955950;28;20236;-75
2022/01/11 18:48:04;;;;;;;11.00;5.07;;;2.30;99.90;;;;;;4956251;28;20230;-74
2022/01/11 18:50:30;;;;;;;12.00;5.90;;;2.30;99.90;;;;;;4955865;28;20234;-76
2022/01/11 18:52:58;;;;;;;13.63;5.73;;;2.40;99.90;;;;;;4956176;28;20207;-74
2022/01/11 18:55:25;;;;;;;12.60;4.73;;;2.40;99.90;;;;;;4955659;28;20270;-74
2022/01/11 18:57:52;;;;;;;14.37;5.77;;;2.50;99.90;;;;;;4955758;28;20327;-75
2022/01/11 19:00:20;;;;;;;12.20;5.60;;;2.50;99.90;;;;;;4956047;28;20212;-75
2022/01/11 19:02:49;;;;;;;10.17;4.67;;;2.30;99.90;;;;;;4955879;28;20212;-75
2022/01/11 19:05:17;;;;;;;10.60;4.70;;;2.20;99.90;;;;;;4951396;28;20235;-74
2022/01/11 19:07:45;;;;;;;12.03;5.17;;;2.10;99.90;;;;;;4955377;28;20212;-74
2022/01/11 19:10:13;;;;;;;8.77;4.67;;;2.10;99.90;;;;;;4955536;28;20218;-75
2022/01/11 19:12:40;;;;;;;11.57;5.47;;;2.10;99.90;;;;;;4955039;28;20694;-75
2022/01/11 19:15:09;;;;;;;11.43;4.60;;;2.10;99.90;;;;;;4955210;28;20208;-75
2022/01/11 19:17:37;;;;;;;11.60;4.83;;;2.10;99.90;;;;;;4954205;28;20563;-75
2022/01/11 19:20:07;;;;;;;10.70;5.10;;;2.10;99.90;;;;;;4955223;28;20218;-75
2022/01/11 19:22:35;;;;;;;10.57;5.53;;;2.20;99.90;;;;;;4955117;28;20212;-74
2022/01/11 19:25:06;;;;;;;11.27;4.77;;;2.10;99.90;;;;;;4954282;28;20228;-75
2022/01/11 19:27:33;;;;;;;11.53;4.67;;;2.10;99.90;;;;;;4954992;28;20204;-74
2022/01/11 19:30:01;;;;;;;10.80;4.47;;;2.20;99.90;;;;;;4952379;28;20204;-74
2022/01/11 19:32:28;;;;;;;14.30;5.60;;;2.20;99.90;;;;;;4950269;28;20209;-76
2022/01/11 19:34:55;;;;;;;9.57;4.97;;;2.10;99.90;;;;;;4935648;29;20209;-76
2022/01/11 19:37:26;;;;;;;13.37;5.63;;;2.10;99.90;;;;;;4935371;29;20225;-75
2022/01/11 19:39:55;;;;;;;9.97;5.07;;;2.10;99.90;;;;;;4936060;29;20352;-74
2022/01/11 19:42:27;;;;;;;14.23;4.53;;;2.00;99.90;;;;;;4936246;29;20208;-75
2022/01/11 19:44:54;;;;;;;9.40;4.47;;;2.00;99.90;;;;;;4936097;29;20233;-76
2022/01/11 19:47:21;;;;;;;8.60;4.63;;;2.00;99.90;;;;;;4954039;28;20220;-75
2022/01/11 19:49:50;;;;;;;13.03;5.53;;;2.10;99.90;;;;;;4954590;28;20223;-76
2022/01/11 19:52:17;;;;;;;13.77;5.07;;;2.10;99.90;;;;;;4954576;28;20659;-75
2022/01/11 19:54:46;;;;;;;8.50;4.53;;;2.10;99.90;;;;;;4953232;28;20208;-74
2022/01/11 19:57:14;;;;;;;8.70;4.77;;;2.20;99.90;;;;;;4954242;28;20707;-75
2022/01/11 19:59:41;;;;;;;10.60;4.77;;;2.20;99.90;;;;;;4954961;28;20204;-76
2022/01/11 20:02:09;;;;;;;10.63;4.97;;;2.30;99.90;;;;;;4949231;28;20212;-74
2022/01/11 20:04:36;;;;;;;12.10;5.53;;;2.20;99.90;;;;;;4954379;28;20601;-76
2022/01/11 20:07:03;;;;;;;14.67;6.00;;;2.20;99.90;;;;;;4954043;28;20226;-75
2022/01/11 20:09:30;;;;;;;11.57;5.20;;;2.30;99.90;;;;;;4955006;28;20215;-75
2022/01/11 20:11:59;;;;;;;11.03;5.43;;;2.30;99.90;;;;;;4954865;28;20212;-76
2022/01/11 20:14:27;;;;;;;13.97;6.13;;;2.30;99.90;;;;;;4954606;28;20214;-75
2022/01/11 20:16:54;;;;;;;11.63;4.90;;;2.40;99.90;;;;;;4954827;28;20318;-75
2022/01/11 20:19:21;;;;;;;12.33;5.23;;;2.40;99.90;;;;;;4943426;28;20207;-75
2022/01/11 20:21:59;;;;;;;15.47;5.93;;;2.40;99.90;;;;;;4935393;29;20213;-75
2022/01/11 20:27:14;;;;;;;11.80;5.13;;;2.40;99.90;;;;;;4935214;29;20279;-74
2022/01/11 20:29:42;;;;;;;11.33;5.23;;;2.50;99.90;;;;;;4935468;29;20204;-74
2022/01/11 20:32:11;;;;;;;10.33;4.93;;;2.50;99.90;;;;;;4935839;29;20209;-74
2022/01/11 20:34:39;;;;;;;11.03;5.03;;;2.40;99.90;;;;;;4935523;29;20236;-74
2022/01/11 20:37:07;;;;;;;10.10;4.97;;;2.50;99.90;;;;;;4935261;29;20311;-74
2022/01/11 20:39:35;;;;;;;8.33;3.70;;;2.50;99.90;;;;;;4935133;29;20276;-74
2022/01/11 20:42:05;;;;;;;7.57;4.03;;;2.50;99.90;;;;;;4935495;29;20213;-74
2022/01/11 20:44:34;;;;;;;12.93;4.13;;;2.50;99.90;;;;;;4935166;29;20264;-73
2022/01/11 20:47:01;;;;;;;13.33;4.87;;;2.50;99.90;;;;;;4935226;29;20229;-74
